sensor_id;sensor_type;location;lat;lon;timestamp;P1;durP1;ratioP1;P2;durP2;ratioP2
3293;SDS011;1659;51.470;6.770;2022-10-04T00:00:43;13.63;;;8.43;;
3293;SDS011;1659;51.470;6.770;2022-10-04T00:03:11;16.10;;;9.50;;
3293;SDS011;1659;51.470;6.770;2022-10-04T00:05:46;17.53;;;9.60;;
3293;SDS011;1659;51.470;6.770;2022-10-04T00:08:19;18.87;;;8.80;;
3293;SDS011;1659;51.470;6.770;2022-10-04T00:10:59;14.90;;;9.40;;
3293;SDS011;1659;51.470;6.770;2022-10-04T00:13:30;16.30;;;9.27;;
3293;SDS011;1659;51.470;6.770;2022-10-04T00:15:59;16.47;;;8.90;;
3293;SDS011;1659;51.470;6.770;2022-10-04T00:18:27;14.83;;;9.10;;
3293;SDS011;1659;51.470;6.770;2022-10-04T00:21:00;17.73;;;10.00;;
3293;SDS011;1659;51.470;6.770;2022-10-04T00:23:38;15.30;;;9.60;;
3293;SDS011;1659;51.470;6.770;2022-10-04T00:26:09;13.43;;;9.17;;
3293;SDS011;1659;51.470;6.770;2022-10-04T00:28:43;15.20;;;10.03;;
3293;SDS011;1659;51.470;6.770;2022-10-04T00:31:15;17.77;;;10.07;;
3293;SDS011;1659;51.470;6.770;2022-10-04T00:33:47;23.47;;;9.80;;
3293;SDS011;1659;51.470;6.770;2022-10-04T00:36:33;12.73;;;10.00;;
3293;SDS011;1659;51.470;6.770;2022-10-04T00:39:14;20.23;;;9.63;;
3293;SDS011;1659;51.470;6.770;2022-10-04T00:41:59;17.60;;;10.17;;
3293;SDS011;1659;51.470;6.770;2022-10-04T00:44:35;18.50;;;9.57;;
3293;SDS011;1659;51.470;6.770;2022-10-04T00:47:13;18.77;;;9.10;;
3293;SDS011;1659;51.470;6.770;2022-10-04T00:49:48;20.73;;;10.73;;
3293;SDS011;1659;51.470;6.770;2022-10-04T00:52:21;14.33;;;10.33;;
3293;SDS011;1659;51.470;6.770;2022-10-04T00:54:52;18.33;;;10.30;;
3293;SDS011;1659;51.470;6.770;2022-10-04T00:57:23;13.07;;;8.83;;
3293;SDS011;1659;51.470;6.770;2022-10-04T00:59:54;20.70;;;10.77;;
3293;SDS011;1659;51.470;6.770;2022-10-04T01:02:27;20.00;;;11.03;;
3293;SDS011;1659;51.470;6.770;2022-10-04T01:04:58;15.30;;;9.53;;
3293;SDS011;1659;51.470;6.770;2022-10-04T01:07:28;19.23;;;9.60;;
3293;SDS011;1659;51.470;6.770;2022-10-04T01:09:58;12.30;;;9.10;;
3293;SDS011;1659;51.470;6.770;2022-10-04T01:12:38;12.93;;;9.30;;
3293;SDS011;1659;51.470;6.770;2022-10-04T01:15:11;13.87;;;10.07;;
3293;SDS011;1659;51.470;6.770;2022-10-04T01:17:41;19.60;;;11.13;;
3293;SDS011;1659;51.470;6.770;2022-10-04T01:20:32;15.37;;;9.97;;
3293;SDS011;1659;51.470;6.770;2022-10-04T01:23:03;17.90;;;9.97;;
3293;SDS011;1659;51.470;6.770;2022-10-04T01:25:43;21.87;;;10.63;;
3293;SDS011;1659;51.470;6.770;2022-10-04T01:28:12;17.03;;;10.17;;
3293;SDS011;1659;51.470;6.770;2022-10-04T01:30:39;14.40;;;10.40;;
3293;SDS011;1659;51.470;6.770;2022-10-04T01:33:05;20.00;;;10.53;;
3293;SDS011;1659;51.470;6.770;2022-10-04T01:35:32;20.20;;;10.23;;
3293;SDS011;1659;51.470;6.770;2022-10-04T01:38:00;18.60;;;11.17;;
3293;SDS011;1659;51.470;6.770;2022-10-04T01:40:29;17.00;;;10.10;;
3293;SDS011;1659;51.470;6.770;2022-10-04T01:42:57;14.10;;;10.20;;
3293;SDS011;1659;51.470;6.770;2022-10-04T01:45:31;15.53;;;10.83;;
3293;SDS011;1659;51.470;6.770;2022-10-04T01:48:04;21.73;;;11.23;;
3293;SDS011;1659;51.470;6.770;2022-10-04T01:50:34;22.33;;;10.60;;
3293;SDS011;1659;51.470;6.770;2022-10-04T01:53:09;15.80;;;10.70;;
3293;SDS011;1659;51.470;6.770;2022-10-04T01:55:42;15.03;;;10.70;;
3293;SDS011;1659;51.470;6.770;2022-10-04T01:58:13;17.23;;;10.00;;
3293;SDS011;1659;51.470;6.770;2022-10-04T02:00:44;21.50;;;10.57;;
3293;SDS011;1659;51.470;6.770;2022-10-04T02:03:16;15.30;;;9.87;;
3293;SDS011;1659;51.470;6.770;2022-10-04T02:05:48;13.87;;;9.53;;
3293;SDS011;1659;51.470;6.770;2022-10-04T02:08:21;16.00;;;11.27;;
3293;SDS011;1659;51.470;6.770;2022-10-04T02:10:52;13.53;;;10.00;;
3293;SDS011;1659;51.470;6.770;2022-10-04T02:13:20;18.87;;;10.77;;
3293;SDS011;1659;51.470;6.770;2022-10-04T02:15:53;16.70;;;9.53;;
3293;SDS011;1659;51.470;6.770;2022-10-04T02:18:21;14.33;;;9.60;;
3293;SDS011;1659;51.470;6.770;2022-10-04T02:20:50;16.60;;;10.03;;
3293;SDS011;1659;51.470;6.770;2022-10-04T02:23:19;17.07;;;10.97;;
3293;SDS011;1659;51.470;6.770;2022-10-04T02:25:47;16.00;;;10.67;;
3293;SDS011;1659;51.470;6.770;2022-10-04T02:28:15;20.43;;;10.07;;
3293;SDS011;1659;51.470;6.770;2022-10-04T02:30:43;19.33;;;9.70;;
3293;SDS011;1659;51.470;6.770;2022-10-04T02:33:32;17.50;;;10.87;;
3293;SDS011;1659;51.470;6.770;2022-10-04T02:36:04;17.03;;;10.90;;
3293;SDS011;1659;51.470;6.770;2022-10-04T02:38:33;15.07;;;10.50;;
3293;SDS011;1659;51.470;6.770;2022-10-04T02:41:07;15.63;;;10.20;;
3293;SDS011;1659;51.470;6.770;2022-10-04T02:43:44;23.87;;;11.23;;
3293;SDS011;1659;51.470;6.770;2022-10-04T02:46:15;19.07;;;10.13;;
3293;SDS011;1659;51.470;6.770;2022-10-04T02:48:48;11.90;;;9.27;;
3293;SDS011;1659;51.470;6.770;2022-10-04T02:51:21;24.40;;;10.50;;
3293;SDS011;1659;51.470;6.770;2022-10-04T02:54:04;14.77;;;9.40;;
3293;SDS011;1659;51.470;6.770;2022-10-04T02:56:39;13.30;;;9.93;;
3293;SDS011;1659;51.470;6.770;2022-10-04T02:59:12;15.47;;;10.40;;
3293;SDS011;1659;51.470;6.770;2022-10-04T03:01:45;15.80;;;9.30;;
3293;SDS011;1659;51.470;6.770;2022-10-04T03:04:17;18.67;;;9.77;;
3293;SDS011;1659;51.470;6.770;2022-10-04T03:06:47;14.77;;;10.20;;
3293;SDS011;1659;51.470;6.770;2022-10-04T03:09:15;16.20;;;10.23;;
3293;SDS011;1659;51.470;6.770;2022-10-04T03:11:44;17.70;;;11.80;;
3293;SDS011;1659;51.470;6.770;2022-10-04T03:14:13;16.23;;;10.50;;
3293;SDS011;1659;51.470;6.770;2022-10-04T03:16:44;22.57;;;10.27;;
3293;SDS011;1659;51.470;6.770;2022-10-04T03:19:15;13.70;;;9.80;;
3293;SDS011;1659;51.470;6.770;2022-10-04T03:21:43;15.93;;;9.90;;
3293;SDS011;1659;51.470;6.770;2022-10-04T03:24:14;17.17;;;11.00;;
3293;SDS011;1659;51.470;6.770;2022-10-04T03:26:44;17.67;;;10.17;;
3293;SDS011;1659;51.470;6.770;2022-10-04T03:29:15;19.33;;;11.57;;
3293;SDS011;1659;51.470;6.770;2022-10-04T03:31:44;20.20;;;10.33;;
3293;SDS011;1659;51.470;6.770;2022-10-04T03:34:14;21.13;;;10.17;;
3293;SDS011;1659;51.470;6.770;2022-10-04T03:36:42;20.67;;;9.97;;
3293;SDS011;1659;51.470;6.770;2022-10-04T03:39:11;14.40;;;9.87;;
3293;SDS011;1659;51.470;6.770;2022-10-04T03:41:44;16.20;;;9.83;;
3293;SDS011;1659;51.470;6.770;2022-10-04T03:44:13;19.63;;;10.27;;
3293;SDS011;1659;51.470;6.770;2022-10-04T03:46:43;20.10;;;11.10;;
3293;SDS011;1659;51.470;6.770;2022-10-04T03:49:11;28.83;;;11.17;;
3293;SDS011;1659;51.470;6.770;2022-10-04T03:51:43;16.23;;;10.30;;
3293;SDS011;1659;51.470;6.770;2022-10-04T03:54:14;14.47;;;10.30;;
3293;SDS011;1659;51.470;6.770;2022-10-04T03:56:44;18.97;;;10.00;;
3293;SDS011;1659;51.470;6.770;2022-10-04T03:59:13;22.23;;;10.50;;
3293;SDS011;1659;51.470;6.770;2022-10-04T04:01:43;19.50;;;11.03;;
3293;SDS011;1659;51.470;6.770;2022-10-04T04:04:17;13.87;;;9.57;;
3293;SDS011;1659;51.470;6.770;2022-10-04T04:06:52;18.67;;;11.43;;
3293;SDS011;1659;51.470;6.770;2022-10-04T04:09:32;15.60;;;9.93;;
3293;SDS011;1659;51.470;6.770;2022-10-04T04:12:04;18.00;;;11.40;;
3293;SDS011;1659;51.470;6.770;2022-10-04T04:14:36;23.10;;;11.07;;
3293;SDS011;1659;51.470;6.770;2022-10-04T04:17:16;24.50;;;12.30;;
3293;SDS011;1659;51.470;6.770;2022-10-04T04:19:56;21.30;;;11.53;;
3293;SDS011;1659;51.470;6.770;2022-10-04T04:22:24;16.00;;;9.80;;
3293;SDS011;1659;51.470;6.770;2022-10-04T04:24:55;22.10;;;10.80;;
3293;SDS011;1659;51.470;6.770;2022-10-04T04:27:23;21.83;;;10.33;;
3293;SDS011;1659;51.470;6.770;2022-10-04T04:29:52;32.17;;;11.30;;
3293;SDS011;1659;51.470;6.770;2022-10-04T04:32:19;21.70;;;11.67;;
3293;SDS011;1659;51.470;6.770;2022-10-04T04:34:50;25.13;;;11.77;;
3293;SDS011;1659;51.470;6.770;2022-10-04T04:37:18;24.00;;;10.60;;
3293;SDS011;1659;51.470;6.770;2022-10-04T04:39:47;15.80;;;10.47;;
3293;SDS011;1659;51.470;6.770;2022-10-04T04:42:19;19.57;;;11.33;;
3293;SDS011;1659;51.470;6.770;2022-10-04T04:44:49;18.00;;;10.17;;
3293;SDS011;1659;51.470;6.770;2022-10-04T04:47:25;22.70;;;11.37;;
3293;SDS011;1659;51.470;6.770;2022-10-04T04:49:54;22.33;;;11.70;;
3293;SDS011;1659;51.470;6.770;2022-10-04T04:52:27;21.90;;;12.30;;
3293;SDS011;1659;51.470;6.770;2022-10-04T04:54:55;19.90;;;10.83;;
3293;SDS011;1659;51.470;6.770;2022-10-04T04:57:22;22.40;;;12.40;;
3293;SDS011;1659;51.470;6.770;2022-10-04T04:59:49;25.93;;;12.50;;
3293;SDS011;1659;51.470;6.770;2022-10-04T05:02:31;23.00;;;13.10;;
3293;SDS011;1659;51.470;6.770;2022-10-04T05:05:15;22.27;;;11.93;;
3293;SDS011;1659;51.470;6.770;2022-10-04T05:07:44;25.30;;;13.50;;
3293;SDS011;1659;51.470;6.770;2022-10-04T05:12:57;26.37;;;14.00;;
3293;SDS011;1659;51.470;6.770;2022-10-04T05:15:26;26.27;;;13.43;;
3293;SDS011;1659;51.470;6.770;2022-10-04T05:17:56;23.27;;;12.67;;
3293;SDS011;1659;51.470;6.770;2022-10-04T05:20:24;21.57;;;12.30;;
3293;SDS011;1659;51.470;6.770;2022-10-04T05:22:51;30.73;;;12.53;;
3293;SDS011;1659;51.470;6.770;2022-10-04T05:25:21;18.73;;;11.57;;
3293;SDS011;1659;51.470;6.770;2022-10-04T05:27:51;23.33;;;12.63;;
3293;SDS011;1659;51.470;6.770;2022-10-04T05:30:36;22.20;;;12.63;;
3293;SDS011;1659;51.470;6.770;2022-10-04T05:33:13;30.90;;;14.97;;
3293;SDS011;1659;51.470;6.770;2022-10-04T05:35:53;20.97;;;11.73;;
3293;SDS011;1659;51.470;6.770;2022-10-04T05:38:32;17.77;;;11.90;;
3293;SDS011;1659;51.470;6.770;2022-10-04T05:41:05;32.83;;;12.20;;
3293;SDS011;1659;51.470;6.770;2022-10-04T05:43:35;24.93;;;11.30;;
3293;SDS011;1659;51.470;6.770;2022-10-04T05:46:16;29.73;;;11.63;;
3293;SDS011;1659;51.470;6.770;2022-10-04T05:48:48;31.13;;;12.40;;
3293;SDS011;1659;51.470;6.770;2022-10-04T05:51:18;20.97;;;11.77;;
3293;SDS011;1659;51.470;6.770;2022-10-04T05:53:47;23.13;;;11.70;;
3293;SDS011;1659;51.470;6.770;2022-10-04T05:56:18;19.40;;;11.70;;
3293;SDS011;1659;51.470;6.770;2022-10-04T05:59:00;23.30;;;11.63;;
3293;SDS011;1659;51.470;6.770;2022-10-04T06:01:38;22.10;;;11.43;;
3293;SDS011;1659;51.470;6.770;2022-10-04T06:04:23;27.93;;;11.13;;
3293;SDS011;1659;51.470;6.770;2022-10-04T06:06:58;21.97;;;11.67;;
3293;SDS011;1659;51.470;6.770;2022-10-04T06:09:46;29.40;;;10.70;;
3293;SDS011;1659;51.470;6.770;2022-10-04T06:12:23;20.17;;;11.60;;
3293;SDS011;1659;51.470;6.770;2022-10-04T06:15:12;18.73;;;12.20;;
3293;SDS011;1659;51.470;6.770;2022-10-04T06:17:53;19.33;;;13.67;;
3293;SDS011;1659;51.470;6.770;2022-10-04T06:23:29;24.50;;;12.40;;
3293;SDS011;1659;51.470;6.770;2022-10-04T06:26:02;25.93;;;11.30;;
3293;SDS011;1659;51.470;6.770;2022-10-04T06:28:32;20.30;;;11.27;;
3293;SDS011;1659;51.470;6.770;2022-10-04T06:31:15;27.03;;;11.20;;
3293;SDS011;1659;51.470;6.770;2022-10-04T06:34:03;19.97;;;11.87;;
3293;SDS011;1659;51.470;6.770;2022-10-04T06:39:41;19.50;;;11.60;;
3293;SDS011;1659;51.470;6.770;2022-10-04T06:42:39;20.90;;;10.90;;
3293;SDS011;1659;51.470;6.770;2022-10-04T06:45:26;18.50;;;11.10;;
3293;SDS011;1659;51.470;6.770;2022-10-04T06:48:06;24.03;;;12.47;;
3293;SDS011;1659;51.470;6.770;2022-10-04T06:50:53;27.70;;;12.07;;
3293;SDS011;1659;51.470;6.770;2022-10-04T06:53:26;23.60;;;11.00;;
3293;SDS011;1659;51.470;6.770;2022-10-04T07:01:49;20.97;;;11.67;;
3293;SDS011;1659;51.470;6.770;2022-10-04T07:04:20;31.67;;;10.80;;
3293;SDS011;1659;51.470;6.770;2022-10-04T07:06:59;24.30;;;10.97;;
3293;SDS011;1659;51.470;6.770;2022-10-04T07:09:51;16.47;;;10.30;;
3293;SDS011;1659;51.470;6.770;2022-10-04T07:12:21;27.73;;;11.27;;
3293;SDS011;1659;51.470;6.770;2022-10-04T07:14:50;14.40;;;9.40;;
3293;SDS011;1659;51.470;6.770;2022-10-04T07:17:19;18.83;;;10.07;;
3293;SDS011;1659;51.470;6.770;2022-10-04T07:19:52;19.00;;;9.90;;
3293;SDS011;1659;51.470;6.770;2022-10-04T07:22:23;14.83;;;9.00;;
3293;SDS011;1659;51.470;6.770;2022-10-04T07:25:05;11.03;;;8.90;;
3293;SDS011;1659;51.470;6.770;2022-10-04T07:27:42;18.10;;;9.77;;
3293;SDS011;1659;51.470;6.770;2022-10-04T07:30:35;15.40;;;9.20;;
3293;SDS011;1659;51.470;6.770;2022-10-04T07:33:04;16.17;;;9.50;;
3293;SDS011;1659;51.470;6.770;2022-10-04T07:35:35;19.33;;;9.23;;
3293;SDS011;1659;51.470;6.770;2022-10-04T07:38:13;12.17;;;8.73;;
3293;SDS011;1659;51.470;6.770;2022-10-04T07:40:57;13.70;;;9.00;;
3293;SDS011;1659;51.470;6.770;2022-10-04T07:43:28;16.27;;;9.20;;
3293;SDS011;1659;51.470;6.770;2022-10-04T07:46:00;16.37;;;8.97;;
3293;SDS011;1659;51.470;6.770;2022-10-04T07:48:29;17.60;;;9.97;;
3293;SDS011;1659;51.470;6.770;2022-10-04T07:50:58;16.33;;;8.43;;
3293;SDS011;1659;51.470;6.770;2022-10-04T07:53:38;14.90;;;9.33;;
3293;SDS011;1659;51.470;6.770;2022-10-04T07:56:12;17.87;;;8.60;;
3293;SDS011;1659;51.470;6.770;2022-10-04T07:58:46;13.03;;;8.80;;
3293;SDS011;1659;51.470;6.770;2022-10-04T08:01:25;21.93;;;9.03;;
3293;SDS011;1659;51.470;6.770;2022-10-04T08:04:04;26.73;;;8.43;;
3293;SDS011;1659;51.470;6.770;2022-10-04T08:06:50;11.87;;;7.00;;
3293;SDS011;1659;51.470;6.770;2022-10-04T08:09:25;19.33;;;8.80;;
3293;SDS011;1659;51.470;6.770;2022-10-04T08:12:01;16.47;;;8.53;;
3293;SDS011;1659;51.470;6.770;2022-10-04T08:14:39;18.37;;;8.67;;
3293;SDS011;1659;51.470;6.770;2022-10-04T08:17:20;11.93;;;7.90;;
3293;SDS011;1659;51.470;6.770;2022-10-04T08:20:20;11.00;;;7.83;;
3293;SDS011;1659;51.470;6.770;2022-10-04T08:22:58;15.97;;;8.10;;
3293;SDS011;1659;51.470;6.770;2022-10-04T08:25:35;13.67;;;7.33;;
3293;SDS011;1659;51.470;6.770;2022-10-04T08:28:11;14.00;;;7.50;;
3293;SDS011;1659;51.470;6.770;2022-10-04T08:31:12;16.63;;;7.60;;
3293;SDS011;1659;51.470;6.770;2022-10-04T08:34:00;9.50;;;7.00;;
3293;SDS011;1659;51.470;6.770;2022-10-04T08:36:41;11.43;;;6.67;;
3293;SDS011;1659;51.470;6.770;2022-10-04T08:39:19;11.53;;;7.27;;
3293;SDS011;1659;51.470;6.770;2022-10-04T08:48:29;10.70;;;6.83;;
3293;SDS011;1659;51.470;6.770;2022-10-04T09:00:27;17.53;;;6.80;;
3293;SDS011;1659;51.470;6.770;2022-10-04T09:06:31;6.93;;;6.23;;
3293;SDS011;1659;51.470;6.770;2022-10-04T09:18:00;8.20;;;5.90;;
3293;SDS011;1659;51.470;6.770;2022-10-04T09:20:40;7.60;;;6.33;;
3293;SDS011;1659;51.470;6.770;2022-10-04T09:23:20;8.33;;;5.50;;
3293;SDS011;1659;51.470;6.770;2022-10-04T09:26:19;10.30;;;6.30;;
3293;SDS011;1659;51.470;6.770;2022-10-04T09:31:49;8.60;;;5.53;;
3293;SDS011;1659;51.470;6.770;2022-10-04T09:34:43;6.67;;;5.40;;
3293;SDS011;1659;51.470;6.770;2022-10-04T09:37:39;11.87;;;5.20;;
3293;SDS011;1659;51.470;6.770;2022-10-04T09:46:36;7.90;;;5.57;;
3293;SDS011;1659;51.470;6.770;2022-10-04T09:49:21;8.43;;;5.67;;
3293;SDS011;1659;51.470;6.770;2022-10-04T09:52:14;8.77;;;5.50;;
3293;SDS011;1659;51.470;6.770;2022-10-04T09:57:52;7.90;;;5.83;;
3293;SDS011;1659;51.470;6.770;2022-10-04T10:00:33;9.33;;;5.60;;
3293;SDS011;1659;51.470;6.770;2022-10-04T10:03:10;12.93;;;5.90;;
3293;SDS011;1659;51.470;6.770;2022-10-04T10:09:10;11.20;;;5.97;;
3293;SDS011;1659;51.470;6.770;2022-10-04T10:12:12;10.43;;;6.33;;
3293;SDS011;1659;51.470;6.770;2022-10-04T10:15:12;11.20;;;6.33;;
3293;SDS011;1659;51.470;6.770;2022-10-04T10:17:48;12.63;;;6.80;;
3293;SDS011;1659;51.470;6.770;2022-10-04T10:20:30;9.07;;;6.83;;
3293;SDS011;1659;51.470;6.770;2022-10-04T10:26:32;11.20;;;7.80;;
3293;SDS011;1659;51.470;6.770;2022-10-04T10:29:25;15.60;;;7.87;;
3293;SDS011;1659;51.470;6.770;2022-10-04T10:35:27;16.73;;;8.00;;
3293;SDS011;1659;51.470;6.770;2022-10-04T10:38:22;13.80;;;8.67;;
3293;SDS011;1659;51.470;6.770;2022-10-04T10:41:12;13.13;;;7.70;;
3293;SDS011;1659;51.470;6.770;2022-10-04T10:43:58;12.80;;;8.60;;
3293;SDS011;1659;51.470;6.770;2022-10-04T10:46:41;15.70;;;7.70;;
3293;SDS011;1659;51.470;6.770;2022-10-04T10:49:28;15.37;;;7.90;;
3293;SDS011;1659;51.470;6.770;2022-10-04T10:58:19;9.10;;;8.17;;
3293;SDS011;1659;51.470;6.770;2022-10-04T11:04:20;12.77;;;7.80;;
3293;SDS011;1659;51.470;6.770;2022-10-04T11:07:09;13.07;;;8.60;;
3293;SDS011;1659;51.470;6.770;2022-10-04T11:16:05;8.80;;;6.80;;
3293;SDS011;1659;51.470;6.770;2022-10-04T11:22:14;15.90;;;6.90;;
3293;SDS011;1659;51.470;6.770;2022-10-04T11:25:01;10.97;;;7.97;;
3293;SDS011;1659;51.470;6.770;2022-10-04T11:27:51;11.70;;;6.87;;
3293;SDS011;1659;51.470;6.770;2022-10-04T11:30:24;14.33;;;6.90;;
3293;SDS011;1659;51.470;6.770;2022-10-04T11:36:00;10.57;;;5.40;;
3293;SDS011;1659;51.470;6.770;2022-10-04T11:38:49;7.30;;;4.87;;
3293;SDS011;1659;51.470;6.770;2022-10-04T11:41:24;10.30;;;5.33;;
3293;SDS011;1659;51.470;6.770;2022-10-04T11:44:07;9.10;;;5.73;;
3293;SDS011;1659;51.470;6.770;2022-10-04T11:46:57;9.37;;;5.87;;
3293;SDS011;1659;51.470;6.770;2022-10-04T11:49:38;7.27;;;5.30;;
3293;SDS011;1659;51.470;6.770;2022-10-04T11:55:43;7.87;;;6.00;;
3293;SDS011;1659;51.470;6.770;2022-10-04T11:58:24;9.67;;;6.13;;
3293;SDS011;1659;51.470;6.770;2022-10-04T12:07:28;9.03;;;5.07;;
3293;SDS011;1659;51.470;6.770;2022-10-04T12:10:11;12.63;;;6.40;;
3293;SDS011;1659;51.470;6.770;2022-10-04T12:12:48;10.23;;;5.70;;
3293;SDS011;1659;51.470;6.770;2022-10-04T12:15:42;13.60;;;6.00;;
3293;SDS011;1659;51.470;6.770;2022-10-04T12:18:38;9.30;;;5.00;;
3293;SDS011;1659;51.470;6.770;2022-10-04T12:21:19;12.13;;;5.73;;
3293;SDS011;1659;51.470;6.770;2022-10-04T12:24:08;7.60;;;5.60;;
3293;SDS011;1659;51.470;6.770;2022-10-04T12:26:52;9.50;;;4.97;;
3293;SDS011;1659;51.470;6.770;2022-10-04T12:29:51;11.03;;;5.00;;
3293;SDS011;1659;51.470;6.770;2022-10-04T12:32:35;15.97;;;6.20;;
3293;SDS011;1659;51.470;6.770;2022-10-04T12:35:11;8.83;;;5.37;;
3293;SDS011;1659;51.470;6.770;2022-10-04T12:37:58;10.60;;;5.03;;
3293;SDS011;1659;51.470;6.770;2022-10-04T12:40:38;5.80;;;4.80;;
3293;SDS011;1659;51.470;6.770;2022-10-04T12:43:09;7.43;;;5.70;;
3293;SDS011;1659;51.470;6.770;2022-10-04T12:45:51;8.27;;;5.33;;
3293;SDS011;1659;51.470;6.770;2022-10-04T12:48:45;7.20;;;5.60;;
3293;SDS011;1659;51.470;6.770;2022-10-04T12:51:24;9.47;;;6.97;;
3293;SDS011;1659;51.470;6.770;2022-10-04T12:54:11;8.70;;;6.80;;
3293;SDS011;1659;51.470;6.770;2022-10-04T12:56:52;8.87;;;5.80;;
3293;SDS011;1659;51.470;6.770;2022-10-04T12:59:39;10.17;;;6.90;;
3293;SDS011;1659;51.470;6.770;2022-10-04T13:02:20;12.73;;;6.13;;
3293;SDS011;1659;51.470;6.770;2022-10-04T13:04:57;9.87;;;6.67;;
3293;SDS011;1659;51.470;6.770;2022-10-04T13:07:37;10.30;;;7.40;;
3293;SDS011;1659;51.470;6.770;2022-10-04T13:10:24;10.07;;;6.33;;
3293;SDS011;1659;51.470;6.770;2022-10-04T13:13:07;11.97;;;7.17;;
3293;SDS011;1659;51.470;6.770;2022-10-04T13:15:54;16.03;;;11.00;;
3293;SDS011;1659;51.470;6.770;2022-10-04T13:18:31;16.73;;;7.57;;
3293;SDS011;1659;51.470;6.770;2022-10-04T13:21:05;10.67;;;6.80;;
3293;SDS011;1659;51.470;6.770;2022-10-04T13:23:38;11.03;;;7.80;;
3293;SDS011;1659;51.470;6.770;2022-10-04T13:26:14;17.60;;;9.17;;
3293;SDS011;1659;51.470;6.770;2022-10-04T13:29:05;18.93;;;9.67;;
3293;SDS011;1659;51.470;6.770;2022-10-04T13:31:39;12.40;;;6.57;;
3293;SDS011;1659;51.470;6.770;2022-10-04T13:34:17;12.67;;;8.20;;
3293;SDS011;1659;51.470;6.770;2022-10-04T13:36:58;10.33;;;6.50;;
3293;SDS011;1659;51.470;6.770;2022-10-04T13:39:45;15.70;;;6.93;;
3293;SDS011;1659;51.470;6.770;2022-10-04T13:42:26;13.93;;;7.17;;
3293;SDS011;1659;51.470;6.770;2022-10-04T13:45:18;8.60;;;5.80;;
3293;SDS011;1659;51.470;6.770;2022-10-04T13:48:03;8.33;;;6.57;;
3293;SDS011;1659;51.470;6.770;2022-10-04T13:50:55;12.83;;;7.13;;
3293;SDS011;1659;51.470;6.770;2022-10-04T13:53:31;11.20;;;6.90;;
3293;SDS011;1659;51.470;6.770;2022-10-04T13:56:56;15.33;;;8.07;;
3293;SDS011;1659;51.470;6.770;2022-10-04T13:59:35;11.90;;;6.10;;
3293;SDS011;1659;51.470;6.770;2022-10-04T14:02:23;8.80;;;5.37;;
3293;SDS011;1659;51.470;6.770;2022-10-04T14:08:27;14.40;;;7.33;;
3293;SDS011;1659;51.470;6.770;2022-10-04T14:23:44;13.33;;;6.80;;
3293;SDS011;1659;51.470;6.770;2022-10-04T14:27:02;10.67;;;7.00;;
3293;SDS011;1659;51.470;6.770;2022-10-04T14:33:17;9.60;;;5.40;;
3293;SDS011;1659;51.470;6.770;2022-10-04T14:36:16;8.60;;;5.80;;
3293;SDS011;1659;51.470;6.770;2022-10-04T14:39:06;10.17;;;6.37;;
3293;SDS011;1659;51.470;6.770;2022-10-04T14:41:50;10.73;;;7.07;;
3293;SDS011;1659;51.470;6.770;2022-10-04T14:48:00;8.83;;;5.77;;
3293;SDS011;1659;51.470;6.770;2022-10-04T14:50:47;13.30;;;6.67;;
3293;SDS011;1659;51.470;6.770;2022-10-04T14:53:26;13.17;;;5.83;;
3293;SDS011;1659;51.470;6.770;2022-10-04T14:56:21;14.30;;;5.77;;
3293;SDS011;1659;51.470;6.770;2022-10-04T14:59:01;5.43;;;4.73;;
3293;SDS011;1659;51.470;6.770;2022-10-04T15:01:43;14.73;;;5.10;;
3293;SDS011;1659;51.470;6.770;2022-10-04T15:04:57;12.83;;;6.00;;
3293;SDS011;1659;51.470;6.770;2022-10-04T15:07:33;8.07;;;5.80;;
3293;SDS011;1659;51.470;6.770;2022-10-04T15:10:05;12.47;;;5.60;;
3293;SDS011;1659;51.470;6.770;2022-10-04T15:12:40;7.30;;;4.90;;
3293;SDS011;1659;51.470;6.770;2022-10-04T15:18:03;10.40;;;6.10;;
3293;SDS011;1659;51.470;6.770;2022-10-04T15:20:36;9.30;;;5.80;;
3293;SDS011;1659;51.470;6.770;2022-10-04T15:23:17;14.23;;;6.77;;
3293;SDS011;1659;51.470;6.770;2022-10-04T15:25:57;8.77;;;5.70;;
3293;SDS011;1659;51.470;6.770;2022-10-04T15:28:42;15.77;;;7.20;;
3293;SDS011;1659;51.470;6.770;2022-10-04T15:31:22;9.77;;;5.47;;
3293;SDS011;1659;51.470;6.770;2022-10-04T15:33:57;11.50;;;5.83;;
3293;SDS011;1659;51.470;6.770;2022-10-04T15:36:37;8.87;;;5.17;;
3293;SDS011;1659;51.470;6.770;2022-10-04T15:39:25;10.23;;;6.30;;
3293;SDS011;1659;51.470;6.770;2022-10-04T15:42:05;10.37;;;5.50;;
3293;SDS011;1659;51.470;6.770;2022-10-04T15:44:54;9.20;;;5.97;;
3293;SDS011;1659;51.470;6.770;2022-10-04T15:47:31;16.77;;;5.70;;
3293;SDS011;1659;51.470;6.770;2022-10-04T15:50:19;10.27;;;5.63;;
3293;SDS011;1659;51.470;6.770;2022-10-04T15:56:00;8.40;;;4.93;;
3293;SDS011;1659;51.470;6.770;2022-10-04T15:58:48;6.67;;;4.37;;
3293;SDS011;1659;51.470;6.770;2022-10-04T16:01:46;9.73;;;5.40;;
3293;SDS011;1659;51.470;6.770;2022-10-04T16:04:30;9.17;;;6.50;;
3293;SDS011;1659;51.470;6.770;2022-10-04T16:07:13;8.90;;;5.23;;
3293;SDS011;1659;51.470;6.770;2022-10-04T16:10:00;9.33;;;5.37;;
3293;SDS011;1659;51.470;6.770;2022-10-04T16:12:51;5.90;;;4.80;;
3293;SDS011;1659;51.470;6.770;2022-10-04T16:15:33;12.03;;;5.10;;
3293;SDS011;1659;51.470;6.770;2022-10-04T16:18:03;7.80;;;5.00;;
3293;SDS011;1659;51.470;6.770;2022-10-04T16:20:53;7.67;;;4.70;;
3293;SDS011;1659;51.470;6.770;2022-10-04T16:23:31;5.67;;;4.60;;
3293;SDS011;1659;51.470;6.770;2022-10-04T16:25:59;8.87;;;4.07;;
3293;SDS011;1659;51.470;6.770;2022-10-04T16:28:39;6.17;;;4.30;;
3293;SDS011;1659;51.470;6.770;2022-10-04T16:31:23;9.60;;;4.07;;
3293;SDS011;1659;51.470;6.770;2022-10-04T16:34:02;6.53;;;4.63;;
3293;SDS011;1659;51.470;6.770;2022-10-04T16:36:42;9.40;;;4.93;;
3293;SDS011;1659;51.470;6.770;2022-10-04T16:39:26;8.33;;;5.03;;
3293;SDS011;1659;51.470;6.770;2022-10-04T16:42:15;9.33;;;5.50;;
3293;SDS011;1659;51.470;6.770;2022-10-04T16:44:47;8.07;;;4.80;;
3293;SDS011;1659;51.470;6.770;2022-10-04T16:47:20;8.47;;;5.47;;
3293;SDS011;1659;51.470;6.770;2022-10-04T16:49:51;10.20;;;5.57;;
3293;SDS011;1659;51.470;6.770;2022-10-04T16:52:30;9.83;;;5.60;;
3293;SDS011;1659;51.470;6.770;2022-10-04T16:55:20;12.53;;;5.10;;
3293;SDS011;1659;51.470;6.770;2022-10-04T17:01:26;12.50;;;6.60;;
3293;SDS011;1659;51.470;6.770;2022-10-04T17:04:06;10.30;;;6.70;;
3293;SDS011;1659;51.470;6.770;2022-10-04T17:06:47;534.43;;;323.73;;
3293;SDS011;1659;51.470;6.770;2022-10-04T17:09:21;68.73;;;35.20;;
3293;SDS011;1659;51.470;6.770;2022-10-04T17:11:59;209.47;;;100.97;;
3293;SDS011;1659;51.470;6.770;2022-10-04T17:17:22;102.70;;;50.77;;
3293;SDS011;1659;51.470;6.770;2022-10-04T17:20:01;16.77;;;10.50;;
3293;SDS011;1659;51.470;6.770;2022-10-04T17:22:34;205.93;;;106.80;;
3293;SDS011;1659;51.470;6.770;2022-10-04T17:25:15;334.10;;;171.17;;
3293;SDS011;1659;51.470;6.770;2022-10-04T17:27:51;296.67;;;139.77;;
3293;SDS011;1659;51.470;6.770;2022-10-04T17:30:21;182.63;;;85.73;;
3293;SDS011;1659;51.470;6.770;2022-10-04T17:32:57;287.77;;;142.33;;
3293;SDS011;1659;51.470;6.770;2022-10-04T17:35:55;717.37;;;480.87;;
3293;SDS011;1659;51.470;6.770;2022-10-04T17:38:27;478.23;;;268.93;;
3293;SDS011;1659;51.470;6.770;2022-10-04T17:41:02;328.97;;;168.20;;
3293;SDS011;1659;51.470;6.770;2022-10-04T17:43:39;362.93;;;183.43;;
3293;SDS011;1659;51.470;6.770;2022-10-04T17:46:29;100.40;;;46.43;;
3293;SDS011;1659;51.470;6.770;2022-10-04T17:49:09;78.47;;;37.90;;
3293;SDS011;1659;51.470;6.770;2022-10-04T17:52:03;51.40;;;24.23;;
3293;SDS011;1659;51.470;6.770;2022-10-04T17:54:57;46.03;;;18.37;;
3293;SDS011;1659;51.470;6.770;2022-10-04T17:57:41;31.73;;;16.50;;
3293;SDS011;1659;51.470;6.770;2022-10-04T18:00:15;167.20;;;78.27;;
3293;SDS011;1659;51.470;6.770;2022-10-04T18:02:45;418.60;;;214.67;;
3293;SDS011;1659;51.470;6.770;2022-10-04T18:05:22;427.83;;;219.93;;
3293;SDS011;1659;51.470;6.770;2022-10-04T18:07:55;263.50;;;119.33;;
3293;SDS011;1659;51.470;6.770;2022-10-04T18:10:26;186.17;;;82.70;;
3293;SDS011;1659;51.470;6.770;2022-10-04T18:12:59;101.33;;;46.87;;
3293;SDS011;1659;51.470;6.770;2022-10-04T18:15:29;37.43;;;19.67;;